Afric Star — A8KJ8 — position and weather

sailwx.info

Track history (hours):
 
Tides and Currents Weather Stations Pressure Air Temp Water Temp Dewpoint Dewpoint Depression Visibility Wind Speed Wind Dir Waves Ship Positions

Afric Star

Last reported at 2017-Feb-23 00:33 UTC. Time now 2017-Feb-24 10:45 UTC.
Position N 09°12' W 079°54'.

Length 158 m; draft 7.2 m.

Type: Cargo ship. MMSI: 636013069.

Date/timePositionNaut miles runAvg speedWind from/ knotsBaromVisibWave heightAir tempDewpointWater temp
2017-Feb-23 00:33N 09°12' W 079°54'5 5.2
2017-Feb-22 23:34N 09°16' W 079°55'1 0.6
2017-Feb-22 22:33N 09°17' W 079°55'6 5.6
2017-Feb-22 21:33N 09°23' W 079°55'0 0.2
2017-Feb-22 20:31N 09°23' W 079°55'0 0.0
2017-Feb-22 19:31N 09°23' W 079°55'0 0.0
2017-Feb-22 18:28N 09°23' W 079°55'0 0.0
2017-Feb-22 17:31N 09°23' W 079°55'0 0.0
2017-Feb-22 16:32N 09°23' W 079°55'0 0.1
2017-Feb-22 15:32N 09°23' W 079°55'0 0.1
2017-Feb-22 14:32N 09°23' W 079°55'0 0.1
2017-Feb-22 13:28N 09°23' W 079°55'1 1.1
2017-Feb-22 12:33N 09°24' W 079°55'2 0.9
2017-Feb-22 10:31N 09°25' W 079°56'0 0.0
2017-Feb-22 09:31N 09°25' W 079°56'0 0.0
2017-Feb-22 08:31N 09°25' W 079°56'0 0.0
2017-Feb-22 07:31N 09°25' W 079°56'0 0.0
2017-Feb-22 06:31N 09°25' W 079°56'0 0.0
2017-Feb-22 05:31N 09°25' W 079°56'0 0.0
2017-Feb-22 04:31N 09°25' W 079°56'0 0.0
2017-Feb-22 03:31N 09°25' W 079°56'0 0.0
2017-Feb-22 02:31N 09°25' W 079°56'0 0.0
2017-Feb-22 01:31N 09°25' W 079°56'0 0.0
2017-Feb-22 00:31N 09°25' W 079°56'0 0.0
2017-Feb-21 23:31N 09°25' W 079°56'0 0.0
2017-Feb-21 22:31N 09°25' W 079°56'0 0.0
2017-Feb-21 21:31N 09°25' W 079°56'0 0.0
2017-Feb-21 20:31N 09°25' W 079°56'0 0.0
2017-Feb-21 19:31N 09°25' W 079°56'0 0.0
2017-Feb-21 18:31N 09°25' W 079°56'0 0.0
2017-Feb-21 17:31N 09°25' W 079°56'0 0.0
2017-Feb-21 16:31N 09°25' W 079°56'0 0.0
2017-Feb-21 15:19N 09°25' W 079°56'0 0.0
2017-Feb-21 14:31N 09°25' W 079°56'0 0.1
2017-Feb-21 13:32N 09°25' W 079°56'9 8.5
2017-Feb-21 12:32N 09°33' W 079°52'  
2017-Feb-13 11:33N 38°23' W 030°46'1616.6
2017-Feb-13 10:33N 38°31' W 030°28'1716.6
2017-Feb-13 09:33N 38°39' W 030°09'1716.5
2017-Feb-13 08:33N 38°47' W 029°51'1716.6
2017-Feb-13 07:33N 38°56' W 029°33'1716.7
2017-Feb-13 06:33N 39°05' W 029°15'1716.6
2017-Feb-13 05:33N 39°13' W 028°56'1716.6
2017-Feb-13 04:33N 39°22' W 028°38'1716.6
2017-Feb-13 03:34N 39°31' W 028°19'1716.6
2017-Feb-13 02:33N 39°39' W 028°01'  
Track history (hours):
 
Tides and Currents Weather Stations Pressure Air Temp Water Temp Dewpoint Dewpoint Depression Visibility Wind Speed Wind Dir Waves Ship Positions

Afric Star

Last reported at 2017-Feb-23 00:33 UTC. Time now 2017-Feb-24 10:45 UTC.
Position N 09°12' W 079°54'.

Length 158 m; draft 7.2 m.

Type: Cargo ship. MMSI: 636013069.

Date/timePositionNaut miles runAvg speedWind from/ knotsBaromVisibWave heightAir tempDewpointWater temp
2017-Feb-23 00:33N 09°12' W 079°54'5 5.2
2017-Feb-22 23:34N 09°16' W 079°55'1 0.6
2017-Feb-22 22:33N 09°17' W 079°55'6 5.6
2017-Feb-22 21:33N 09°23' W 079°55'0 0.2
2017-Feb-22 20:31N 09°23' W 079°55'0 0.0
2017-Feb-22 19:31N 09°23' W 079°55'0 0.0
2017-Feb-22 18:28N 09°23' W 079°55'0 0.0
2017-Feb-22 17:31N 09°23' W 079°55'0 0.0
2017-Feb-22 16:32N 09°23' W 079°55'0 0.1
2017-Feb-22 15:32N 09°23' W 079°55'0 0.1
2017-Feb-22 14:32N 09°23' W 079°55'0 0.1
2017-Feb-22 13:28N 09°23' W 079°55'1 1.1
2017-Feb-22 12:33N 09°24' W 079°55'2 0.9
2017-Feb-22 10:31N 09°25' W 079°56'0 0.0
2017-Feb-22 09:31N 09°25' W 079°56'0 0.0
2017-Feb-22 08:31N 09°25' W 079°56'0 0.0
2017-Feb-22 07:31N 09°25' W 079°56'0 0.0
2017-Feb-22 06:31N 09°25' W 079°56'0 0.0
2017-Feb-22 05:31N 09°25' W 079°56'0 0.0
2017-Feb-22 04:31N 09°25' W 079°56'0 0.0
2017-Feb-22 03:31N 09°25' W 079°56'0 0.0
2017-Feb-22 02:31N 09°25' W 079°56'0 0.0
2017-Feb-22 01:31N 09°25' W 079°56'0 0.0
2017-Feb-22 00:31N 09°25' W 079°56'0 0.0
2017-Feb-21 23:31N 09°25' W 079°56'0 0.0
2017-Feb-21 22:31N 09°25' W 079°56'0 0.0
2017-Feb-21 21:31N 09°25' W 079°56'0 0.0
2017-Feb-21 20:31N 09°25' W 079°56'0 0.0
2017-Feb-21 19:31N 09°25' W 079°56'0 0.0
2017-Feb-21 18:31N 09°25' W 079°56'0 0.0
2017-Feb-21 17:31N 09°25' W 079°56'0 0.0
2017-Feb-21 16:31N 09°25' W 079°56'0 0.0
2017-Feb-21 15:19N 09°25' W 079°56'0 0.0
2017-Feb-21 14:31N 09°25' W 079°56'0 0.1
2017-Feb-21 13:32N 09°25' W 079°56'9 8.5
2017-Feb-21 12:32N 09°33' W 079°52'  
2017-Feb-13 11:33N 38°23' W 030°46'1616.6
2017-Feb-13 10:33N 38°31' W 030°28'1716.6
2017-Feb-13 09:33N 38°39' W 030°09'1716.5
2017-Feb-13 08:33N 38°47' W 029°51'1716.6
2017-Feb-13 07:33N 38°56' W 029°33'1716.7
2017-Feb-13 06:33N 39°05' W 029°15'1716.6
2017-Feb-13 05:33N 39°13' W 028°56'1716.6
2017-Feb-13 04:33N 39°22' W 028°38'1716.6
2017-Feb-13 03:34N 39°31' W 028°19'1716.6
2017-Feb-13 02:33N 39°39' W 028°01'  

Dump ship's entire track history